sensor_id;sensor_type;location;lat;lon;timestamp;pressure;altitude;pressure_sealevel;temperature;humidity
10806;BME280;5455;53.224;6.000;2023-02-15T00:01:47;102971.50;;;0.82;100.00
10806;BME280;5455;53.224;6.000;2023-02-15T00:04:17;102973.66;;;0.69;100.00
10806;BME280;5455;53.224;6.000;2023-02-15T00:06:44;102967.53;;;0.62;100.00
10806;BME280;5455;53.224;6.000;2023-02-15T00:09:12;102976.66;;;0.55;100.00
10806;BME280;5455;53.224;6.000;2023-02-15T00:11:39;102975.25;;;0.53;100.00
10806;BME280;5455;53.224;6.000;2023-02-15T00:14:20;102971.56;;;0.59;100.00
10806;BME280;5455;53.224;6.000;2023-02-15T00:16:49;102976.25;;;0.64;100.00
10806;BME280;5455;53.224;6.000;2023-02-15T00:19:17;102977.66;;;0.66;100.00
10806;BME280;5455;53.224;6.000;2023-02-15T00:21:45;102970.13;;;0.68;100.00
10806;BME280;5455;53.224;6.000;2023-02-15T00:24:15;102972.00;;;0.68;100.00
10806;BME280;5455;53.224;6.000;2023-02-15T00:26:43;102968.25;;;0.69;100.00
10806;BME280;5455;53.224;6.000;2023-02-15T00:29:11;102967.63;;;0.67;100.00
10806;BME280;5455;53.224;6.000;2023-02-15T00:31:38;102970.50;;;0.60;100.00
10806;BME280;5455;53.224;6.000;2023-02-15T00:34:26;102979.84;;;0.52;100.00
10806;BME280;5455;53.224;6.000;2023-02-15T00:36:56;102970.88;;;0.52;100.00
10806;BME280;5455;53.224;6.000;2023-02-15T00:39:23;102968.44;;;0.39;100.00
10806;BME280;5455;53.224;6.000;2023-02-15T00:41:50;102970.56;;;0.25;100.00
10806;BME280;5455;53.224;6.000;2023-02-15T00:44:17;102964.09;;;0.15;100.00
10806;BME280;5455;53.224;6.000;2023-02-15T00:46:44;102959.47;;;0.15;100.00
10806;BME280;5455;53.224;6.000;2023-02-15T00:49:11;102953.59;;;0.18;100.00
10806;BME280;5455;53.224;6.000;2023-02-15T00:51:39;102949.34;;;0.22;100.00
10806;BME280;5455;53.224;6.000;2023-02-15T00:54:06;102946.63;;;0.22;100.00
10806;BME280;5455;53.224;6.000;2023-02-15T00:56:33;102942.75;;;0.30;100.00
10806;BME280;5455;53.224;6.000;2023-02-15T00:59:01;102936.94;;;0.38;100.00
10806;BME280;5455;53.224;6.000;2023-02-15T01:01:28;102939.16;;;0.41;100.00
10806;BME280;5455;53.224;6.000;2023-02-15T01:03:55;102930.78;;;0.42;100.00
10806;BME280;5455;53.224;6.000;2023-02-15T01:06:22;102921.66;;;0.48;100.00
10806;BME280;5455;53.224;6.000;2023-02-15T01:08:49;102929.59;;;0.50;100.00
10806;BME280;5455;53.224;6.000;2023-02-15T01:11:19;102921.44;;;0.50;100.00
10806;BME280;5455;53.224;6.000;2023-02-15T01:13:55;102927.44;;;0.52;100.00
10806;BME280;5455;53.224;6.000;2023-02-15T01:16:25;102922.97;;;0.46;100.00
10806;BME280;5455;53.224;6.000;2023-02-15T01:18:52;102930.09;;;0.35;100.00
10806;BME280;5455;53.224;6.000;2023-02-15T01:21:26;102912.56;;;0.15;100.00
10806;BME280;5455;53.224;6.000;2023-02-15T01:23:53;102919.88;;;0.14;100.00
10806;BME280;5455;53.224;6.000;2023-02-15T01:26:20;102917.66;;;0.11;100.00
10806;BME280;5455;53.224;6.000;2023-02-15T01:28:47;102913.28;;;0.10;100.00
10806;BME280;5455;53.224;6.000;2023-02-15T01:31:19;102912.56;;;0.15;100.00
10806;BME280;5455;53.224;6.000;2023-02-15T01:33:47;102905.00;;;0.17;100.00
10806;BME280;5455;53.224;6.000;2023-02-15T01:36:14;102909.38;;;0.18;100.00
10806;BME280;5455;53.224;6.000;2023-02-15T01:38:41;102900.16;;;0.19;100.00
10806;BME280;5455;53.224;6.000;2023-02-15T01:41:08;102903.47;;;0.21;100.00
10806;BME280;5455;53.224;6.000;2023-02-15T01:44:00;102903.47;;;0.21;100.00
10806;BME280;5455;53.224;6.000;2023-02-15T01:46:40;102892.94;;;0.24;100.00
10806;BME280;5455;53.224;6.000;2023-02-15T01:49:18;102905.59;;;0.19;100.00
10806;BME280;5455;53.224;6.000;2023-02-15T01:51:49;102897.84;;;0.11;100.00
10806;BME280;5455;53.224;6.000;2023-02-15T01:54:23;102895.59;;;0.08;100.00
10806;BME280;5455;53.224;6.000;2023-02-15T01:56:55;102891.22;;;0.07;100.00
10806;BME280;5455;53.224;6.000;2023-02-15T01:59:25;102889.34;;;0.07;100.00
10806;BME280;5455;53.224;6.000;2023-02-15T02:01:54;102884.66;;;0.03;100.00
10806;BME280;5455;53.224;6.000;2023-02-15T02:04:31;102881.59;;;-0.01;100.00
10806;BME280;5455;53.224;6.000;2023-02-15T02:07:00;102873.09;;;-0.05;100.00
10806;BME280;5455;53.224;6.000;2023-02-15T02:09:31;102868.25;;;-0.03;100.00
10806;BME280;5455;53.224;6.000;2023-02-15T02:11:59;102861.66;;;0.05;100.00
10806;BME280;5455;53.224;6.000;2023-02-15T02:14:26;102858.22;;;0.10;100.00
10806;BME280;5455;53.224;6.000;2023-02-15T02:20:01;102850.63;;;0.23;100.00
10806;BME280;5455;53.224;6.000;2023-02-15T02:28:14;102848.97;;;0.22;100.00
10806;BME280;5455;53.224;6.000;2023-02-15T02:36:18;102827.31;;;0.11;100.00
10806;BME280;5455;53.224;6.000;2023-02-15T02:41:41;102820.00;;;0.11;100.00
10806;BME280;5455;53.224;6.000;2023-02-15T02:44:19;102812.72;;;0.12;100.00
10806;BME280;5455;53.224;6.000;2023-02-15T02:47:02;102805.28;;;0.07;100.00
10806;BME280;5455;53.224;6.000;2023-02-15T02:49:36;102818.69;;;0.14;100.00
10806;BME280;5455;53.224;6.000;2023-02-15T02:54:52;102819.88;;;0.18;100.00
10806;BME280;5455;53.224;6.000;2023-02-15T02:57:21;102817.66;;;0.15;100.00
10806;BME280;5455;53.224;6.000;2023-02-15T02:59:51;102802.34;;;0.09;100.00
10806;BME280;5455;53.224;6.000;2023-02-15T03:02:25;102807.63;;;0.04;100.00
10806;BME280;5455;53.224;6.000;2023-02-15T03:05:01;102808.59;;;-0.03;100.00
10806;BME280;5455;53.224;6.000;2023-02-15T03:07:31;102807.81;;;-0.03;100.00
10806;BME280;5455;53.224;6.000;2023-02-15T03:10:02;102802.72;;;-0.11;100.00
10806;BME280;5455;53.224;6.000;2023-02-15T03:12:39;102799.56;;;-0.20;100.00
10806;BME280;5455;53.224;6.000;2023-02-15T03:15:14;102801.59;;;-0.27;100.00
10806;BME280;5455;53.224;6.000;2023-02-15T03:17:45;102798.56;;;-0.30;100.00
10806;BME280;5455;53.224;6.000;2023-02-15T03:20:22;102794.19;;;-0.31;100.00
10806;BME280;5455;53.224;6.000;2023-02-15T03:23:13;102791.69;;;-0.33;100.00
10806;BME280;5455;53.224;6.000;2023-02-15T03:25:47;102792.66;;;-0.27;100.00
10806;BME280;5455;53.224;6.000;2023-02-15T03:28:42;102798.06;;;-0.27;100.00
10806;BME280;5455;53.224;6.000;2023-02-15T03:31:12;102792.19;;;-0.36;100.00
10806;BME280;5455;53.224;6.000;2023-02-15T03:33:45;102797.13;;;-0.44;100.00
10806;BME280;5455;53.224;6.000;2023-02-15T03:36:19;102796.47;;;-0.51;100.00
10806;BME280;5455;53.224;6.000;2023-02-15T03:39:00;102788.19;;;-0.57;100.00
10806;BME280;5455;53.224;6.000;2023-02-15T03:41:34;102789.50;;;-0.59;100.00
10806;BME280;5455;53.224;6.000;2023-02-15T03:44:32;102783.50;;;-0.61;100.00
10806;BME280;5455;53.224;6.000;2023-02-15T03:47:08;102779.03;;;-0.56;100.00
10806;BME280;5455;53.224;6.000;2023-02-15T03:52:21;102778.31;;;-0.39;100.00
10806;BME280;5455;53.224;6.000;2023-02-15T03:54:50;102770.84;;;-0.32;100.00
10806;BME280;5455;53.224;6.000;2023-02-15T03:57:28;102763.66;;;-0.27;100.00
10806;BME280;5455;53.224;6.000;2023-02-15T04:00:17;102757.25;;;-0.21;100.00
10806;BME280;5455;53.224;6.000;2023-02-15T04:03:43;102764.78;;;-0.11;100.00
10806;BME280;5455;53.224;6.000;2023-02-15T04:06:12;102768.19;;;-0.04;100.00
10806;BME280;5455;53.224;6.000;2023-02-15T04:08:38;102765.56;;;0.01;100.00
10806;BME280;5455;53.224;6.000;2023-02-15T04:11:24;102761.31;;;0.05;100.00
10806;BME280;5455;53.224;6.000;2023-02-15T04:13:51;102758.84;;;0.04;100.00
10806;BME280;5455;53.224;6.000;2023-02-15T04:16:24;102754.72;;;0.01;100.00
10806;BME280;5455;53.224;6.000;2023-02-15T04:18:51;102754.84;;;-0.06;100.00
10806;BME280;5455;53.224;6.000;2023-02-15T04:21:37;102758.88;;;-0.08;100.00
10806;BME280;5455;53.224;6.000;2023-02-15T04:24:23;102752.75;;;-0.04;100.00
10806;BME280;5455;53.224;6.000;2023-02-15T04:27:09;102752.16;;;-0.06;100.00
10806;BME280;5455;53.224;6.000;2023-02-15T04:29:36;102753.91;;;0.00;100.00
10806;BME280;5455;53.224;6.000;2023-02-15T04:32:03;102744.22;;;0.05;100.00
10806;BME280;5455;53.224;6.000;2023-02-15T04:34:30;102751.88;;;0.08;100.00
10806;BME280;5455;53.224;6.000;2023-02-15T04:36:57;102753.28;;;0.10;100.00
10806;BME280;5455;53.224;6.000;2023-02-15T04:39:24;102741.13;;;0.13;100.00
10806;BME280;5455;53.224;6.000;2023-02-15T04:41:51;102737.34;;;0.14;100.00
10806;BME280;5455;53.224;6.000;2023-02-15T04:44:18;102740.06;;;0.14;100.00
10806;BME280;5455;53.224;6.000;2023-02-15T04:46:45;102742.78;;;0.14;100.00
10806;BME280;5455;53.224;6.000;2023-02-15T04:49:12;102742.19;;;0.12;100.00
10806;BME280;5455;53.224;6.000;2023-02-15T04:51:39;102732.16;;;0.12;100.00
10806;BME280;5455;53.224;6.000;2023-02-15T04:54:06;102736.84;;;0.17;100.00
10806;BME280;5455;53.224;6.000;2023-02-15T04:56:32;102722.25;;;0.18;100.00
10806;BME280;5455;53.224;6.000;2023-02-15T04:59:01;102723.38;;;0.22;100.00
10806;BME280;5455;53.224;6.000;2023-02-15T05:01:28;102713.69;;;0.26;100.00
10806;BME280;5455;53.224;6.000;2023-02-15T05:03:55;102716.50;;;0.31;100.00
10806;BME280;5455;53.224;6.000;2023-02-15T05:06:22;102714.47;;;0.38;100.00
10806;BME280;5455;53.224;6.000;2023-02-15T05:08:49;102714.03;;;0.46;100.00
10806;BME280;5455;53.224;6.000;2023-02-15T05:11:17;102716.38;;;0.54;100.00
10806;BME280;5455;53.224;6.000;2023-02-15T05:13:43;102706.56;;;0.53;100.00
10806;BME280;5455;53.224;6.000;2023-02-15T05:16:11;102714.16;;;0.51;100.00
10806;BME280;5455;53.224;6.000;2023-02-15T05:18:38;102713.56;;;0.49;100.00
10806;BME280;5455;53.224;6.000;2023-02-15T05:21:05;102707.56;;;0.47;100.00
10806;BME280;5455;53.224;6.000;2023-02-15T05:23:31;102706.16;;;0.44;100.00
10806;BME280;5455;53.224;6.000;2023-02-15T05:25:58;102697.53;;;0.47;100.00
10806;BME280;5455;53.224;6.000;2023-02-15T05:28:44;102699.50;;;0.52;100.00
10806;BME280;5455;53.224;6.000;2023-02-15T05:31:14;102699.34;;;0.59;100.00
10806;BME280;5455;53.224;6.000;2023-02-15T05:33:42;102698.28;;;0.60;100.00
10806;BME280;5455;53.224;6.000;2023-02-15T05:36:10;102698.50;;;0.58;100.00
10806;BME280;5455;53.224;6.000;2023-02-15T05:38:37;102700.66;;;0.56;100.00
10806;BME280;5455;53.224;6.000;2023-02-15T05:41:09;102695.72;;;0.53;100.00
10806;BME280;5455;53.224;6.000;2023-02-15T05:43:37;102688.63;;;0.52;100.00
10806;BME280;5455;53.224;6.000;2023-02-15T05:46:04;102685.91;;;0.52;100.00
10806;BME280;5455;53.224;6.000;2023-02-15T05:48:32;102682.66;;;0.50;100.00
10806;BME280;5455;53.224;6.000;2023-02-15T05:51:08;102691.44;;;0.57;100.00
10806;BME280;5455;53.224;6.000;2023-02-15T05:53:37;102695.56;;;0.60;100.00
10806;BME280;5455;53.224;6.000;2023-02-15T05:56:06;102695.63;;;0.65;100.00
10806;BME280;5455;53.224;6.000;2023-02-15T05:58:38;102688.06;;;0.67;100.00
10806;BME280;5455;53.224;6.000;2023-02-15T06:01:16;102695.97;;;0.68;100.00
10806;BME280;5455;53.224;6.000;2023-02-15T06:03:44;102687.81;;;0.68;100.00
10806;BME280;5455;53.224;6.000;2023-02-15T06:06:12;102678.59;;;0.69;100.00
10806;BME280;5455;53.224;6.000;2023-02-15T06:08:39;102676.47;;;0.71;100.00
10806;BME280;5455;53.224;6.000;2023-02-15T06:11:07;102680.25;;;0.70;100.00
10806;BME280;5455;53.224;6.000;2023-02-15T06:13:34;102689.22;;;0.71;100.00
10806;BME280;5455;53.224;6.000;2023-02-15T06:16:05;102687.97;;;0.78;100.00
10806;BME280;5455;53.224;6.000;2023-02-15T06:18:32;102692.41;;;0.84;100.00
10806;BME280;5455;53.224;6.000;2023-02-15T06:20:59;102687.22;;;0.83;100.00
10806;BME280;5455;53.224;6.000;2023-02-15T06:23:26;102686.97;;;0.84;100.00
10806;BME280;5455;53.224;6.000;2023-02-15T06:25:53;102679.66;;;0.85;100.00
10806;BME280;5455;53.224;6.000;2023-02-15T06:28:20;102677.81;;;0.90;100.00
10806;BME280;5455;53.224;6.000;2023-02-15T06:30:47;102674.09;;;0.96;100.00
10806;BME280;5455;53.224;6.000;2023-02-15T06:33:14;102679.47;;;0.91;100.00
10806;BME280;5455;53.224;6.000;2023-02-15T06:35:41;102683.34;;;0.95;100.00
10806;BME280;5455;53.224;6.000;2023-02-15T06:38:08;102680.63;;;0.95;100.00
10806;BME280;5455;53.224;6.000;2023-02-15T06:40:35;102683.34;;;0.95;100.00
10806;BME280;5455;53.224;6.000;2023-02-15T06:43:01;102676.25;;;0.94;100.00
10806;BME280;5455;53.224;6.000;2023-02-15T06:45:28;102690.66;;;0.95;100.00
10806;BME280;5455;53.224;6.000;2023-02-15T06:47:56;102682.75;;;0.93;100.00
10806;BME280;5455;53.224;6.000;2023-02-15T06:50:23;102689.28;;;0.92;100.00
10806;BME280;5455;53.224;6.000;2023-02-15T06:52:55;102688.44;;;0.92;100.00
10806;BME280;5455;53.224;6.000;2023-02-15T06:55:22;102689.28;;;0.92;100.00
10806;BME280;5455;53.224;6.000;2023-02-15T06:57:49;102694.72;;;0.92;100.00
10806;BME280;5455;53.224;6.000;2023-02-15T07:00:17;102690.09;;;0.93;100.00
10806;BME280;5455;53.224;6.000;2023-02-15T07:02:45;102680.63;;;0.95;100.00
10806;BME280;5455;53.224;6.000;2023-02-15T07:05:11;102684.41;;;0.94;100.00
10806;BME280;5455;53.224;6.000;2023-02-15T07:07:39;102681.97;;;0.93;100.00
10806;BME280;5455;53.224;6.000;2023-02-15T07:10:06;102680.03;;;0.93;100.00
10806;BME280;5455;53.224;6.000;2023-02-15T07:12:33;102691.72;;;0.94;100.00
10806;BME280;5455;53.224;6.000;2023-02-15T07:15:11;102682.75;;;0.93;100.00
10806;BME280;5455;53.224;6.000;2023-02-15T07:17:39;102669.19;;;0.93;100.00
10806;BME280;5455;53.224;6.000;2023-02-15T07:20:26;102669.00;;;1.00;100.00
10806;BME280;5455;53.224;6.000;2023-02-15T07:22:53;102667.19;;;1.05;100.00
10806;BME280;5455;53.224;6.000;2023-02-15T07:25:20;102668.34;;;1.09;100.00
10806;BME280;5455;53.224;6.000;2023-02-15T07:27:47;102664.59;;;1.16;100.00
10806;BME280;5455;53.224;6.000;2023-02-15T07:30:16;102672.81;;;1.21;100.00
10806;BME280;5455;53.224;6.000;2023-02-15T07:32:44;102663.38;;;1.23;100.00
10806;BME280;5455;53.224;6.000;2023-02-15T07:35:32;102667.53;;;1.31;100.00
10806;BME280;5455;53.224;6.000;2023-02-15T07:37:59;102666.75;;;1.35;100.00
10806;BME280;5455;53.224;6.000;2023-02-15T07:40:26;102659.75;;;1.39;100.00
10806;BME280;5455;53.224;6.000;2023-02-15T07:42:53;102659.56;;;1.46;100.00
10806;BME280;5455;53.224;6.000;2023-02-15T07:45:24;102662.34;;;1.51;100.00
10806;BME280;5455;53.224;6.000;2023-02-15T07:47:50;102652.09;;;1.58;100.00
10806;BME280;5455;53.224;6.000;2023-02-15T07:50:18;102650.56;;;1.67;100.00
10806;BME280;5455;53.224;6.000;2023-02-15T07:52:44;102650.09;;;1.75;100.00
10806;BME280;5455;53.224;6.000;2023-02-15T07:55:11;102655.03;;;1.78;100.00
10806;BME280;5455;53.224;6.000;2023-02-15T07:57:47;102642.25;;;1.79;100.00
10806;BME280;5455;53.224;6.000;2023-02-15T08:00:17;102646.72;;;1.90;100.00
10806;BME280;5455;53.224;6.000;2023-02-15T08:02:49;102648.47;;;2.01;100.00
10806;BME280;5455;53.224;6.000;2023-02-15T08:05:36;102648.25;;;2.07;100.00
10806;BME280;5455;53.224;6.000;2023-02-15T08:08:04;102648.88;;;2.14;100.00
10806;BME280;5455;53.224;6.000;2023-02-15T08:10:31;102636.44;;;2.23;100.00
10806;BME280;5455;53.224;6.000;2023-02-15T08:13:16;102632.66;;;2.30;100.00
10806;BME280;5455;53.224;6.000;2023-02-15T08:15:50;102636.31;;;2.40;100.00
10806;BME280;5455;53.224;6.000;2023-02-15T08:18:17;102630.34;;;2.43;100.00
10806;BME280;5455;53.224;6.000;2023-02-15T08:20:49;102624.06;;;2.43;100.00
10806;BME280;5455;53.224;6.000;2023-02-15T08:23:16;102633.72;;;2.55;100.00
10806;BME280;5455;53.224;6.000;2023-02-15T08:25:43;102640.56;;;2.68;100.00
10806;BME280;5455;53.224;6.000;2023-02-15T08:28:10;102643.91;;;2.75;100.00
10806;BME280;5455;53.224;6.000;2023-02-15T08:30:37;102636.88;;;2.84;100.00
10806;BME280;5455;53.224;6.000;2023-02-15T08:33:04;102627.13;;;2.93;100.00
10806;BME280;5455;53.224;6.000;2023-02-15T08:35:31;102616.53;;;3.02;100.00
10806;BME280;5455;53.224;6.000;2023-02-15T08:37:58;102619.81;;;3.04;100.00
10806;BME280;5455;53.224;6.000;2023-02-15T08:40:25;102618.19;;;3.08;100.00
10806;BME280;5455;53.224;6.000;2023-02-15T08:42:52;102619.88;;;3.14;100.00
10806;BME280;5455;53.224;6.000;2023-02-15T08:45:19;102615.25;;;3.14;100.00
10806;BME280;5455;53.224;6.000;2023-02-15T08:47:46;102621.53;;;3.15;100.00
10806;BME280;5455;53.224;6.000;2023-02-15T08:50:13;102620.16;;;3.17;100.00
10806;BME280;5455;53.224;6.000;2023-02-15T08:52:40;102612.53;;;3.19;100.00
10806;BME280;5455;53.224;6.000;2023-02-15T08:55:07;102600.03;;;3.23;100.00
10806;BME280;5455;53.224;6.000;2023-02-15T08:57:34;102601.69;;;3.29;100.00
10806;BME280;5455;53.224;6.000;2023-02-15T09:00:00;102603.34;;;3.36;100.00
10806;BME280;5455;53.224;6.000;2023-02-15T09:02:30;102602.81;;;3.39;100.00
10806;BME280;5455;53.224;6.000;2023-02-15T09:04:58;102584.78;;;3.43;100.00
10806;BME280;5455;53.224;6.000;2023-02-15T09:07:25;102595.19;;;3.51;100.00
10806;BME280;5455;53.224;6.000;2023-02-15T09:09:51;102588.94;;;3.55;100.00
10806;BME280;5455;53.224;6.000;2023-02-15T09:12:20;102590.31;;;3.63;100.00
10806;BME280;5455;53.224;6.000;2023-02-15T09:14:47;102590.31;;;3.73;100.00
10806;BME280;5455;53.224;6.000;2023-02-15T09:17:14;102594.16;;;3.82;100.00
10806;BME280;5455;53.224;6.000;2023-02-15T09:19:41;102585.44;;;3.95;100.00
10806;BME280;5455;53.224;6.000;2023-02-15T09:22:08;102590.09;;;4.05;100.00
10806;BME280;5455;53.224;6.000;2023-02-15T09:24:35;102595.53;;;4.15;100.00
10806;BME280;5455;53.224;6.000;2023-02-15T09:27:02;102590.38;;;4.23;100.00
10806;BME280;5455;53.224;6.000;2023-02-15T09:29:29;102586.53;;;4.34;100.00
10806;BME280;5455;53.224;6.000;2023-02-15T09:31:57;102595.53;;;4.45;100.00
10806;BME280;5455;53.224;6.000;2023-02-15T09:34:24;102579.69;;;4.52;100.00
10806;BME280;5455;53.224;6.000;2023-02-15T09:36:51;102585.94;;;4.63;100.00
10806;BME280;5455;53.224;6.000;2023-02-15T09:39:23;102591.38;;;4.73;100.00
10806;BME280;5455;53.224;6.000;2023-02-15T09:44:43;102589.41;;;4.93;100.00
10806;BME280;5455;53.224;6.000;2023-02-15T10:01:14;102593.22;;;5.56;100.00
10806;BME280;5455;53.224;6.000;2023-02-15T10:06:34;102587.09;;;5.75;100.00
10806;BME280;5455;53.224;6.000;2023-02-15T10:09:27;102590.63;;;5.85;100.00
10806;BME280;5455;53.224;6.000;2023-02-15T10:12:26;102595.19;;;5.95;100.00
10806;BME280;5455;53.224;6.000;2023-02-15T10:20:09;102599.13;;;6.18;100.00
10806;BME280;5455;53.224;6.000;2023-02-15T10:28:50;102601.97;;;6.65;100.00
10806;BME280;5455;53.224;6.000;2023-02-15T10:31:39;102596.09;;;6.77;100.00
10806;BME280;5455;53.224;6.000;2023-02-15T10:34:20;102605.91;;;6.83;100.00
10806;BME280;5455;53.224;6.000;2023-02-15T10:37:01;102603.31;;;6.96;100.00
10806;BME280;5455;53.224;6.000;2023-02-15T10:39:59;102601.31;;;7.02;100.00
10806;BME280;5455;53.224;6.000;2023-02-15T10:50:54;102577.84;;;7.33;100.00
10806;BME280;5455;53.224;6.000;2023-02-15T10:56:11;102575.69;;;7.54;100.00
10806;BME280;5455;53.224;6.000;2023-02-15T11:06:50;102567.41;;;7.91;100.00
10806;BME280;5455;53.224;6.000;2023-02-15T11:09:21;102560.13;;;8.00;100.00
10806;BME280;5455;53.224;6.000;2023-02-15T11:11:51;102558.09;;;8.06;100.00
10806;BME280;5455;53.224;6.000;2023-02-15T11:14:31;102559.59;;;8.17;100.00
10806;BME280;5455;53.224;6.000;2023-02-15T11:17:06;102545.00;;;8.35;100.00
10806;BME280;5455;53.224;6.000;2023-02-15T11:19:39;102543.16;;;8.44;100.00
10806;BME280;5455;53.224;6.000;2023-02-15T11:22:09;102548.38;;;8.59;100.00
10806;BME280;5455;53.224;6.000;2023-02-15T11:24:46;102543.72;;;8.73;100.00
10806;BME280;5455;53.224;6.000;2023-02-15T11:27:26;102534.66;;;8.73;100.00
10806;BME280;5455;53.224;6.000;2023-02-15T11:30:11;102538.22;;;8.73;100.00
10806;BME280;5455;53.224;6.000;2023-02-15T11:32:47;102532.13;;;8.76;100.00
10806;BME280;5455;53.224;6.000;2023-02-15T11:35:24;102528.22;;;8.77;100.00
10806;BME280;5455;53.224;6.000;2023-02-15T11:37:55;102526.81;;;8.80;100.00
10806;BME280;5455;53.224;6.000;2023-02-15T11:40:27;102519.34;;;8.80;100.00
10806;BME280;5455;53.224;6.000;2023-02-15T11:42:56;102518.75;;;8.83;100.00
10806;BME280;5455;53.224;6.000;2023-02-15T11:45:28;102517.63;;;8.84;100.00
10806;BME280;5455;53.224;6.000;2023-02-15T11:47:57;102519.38;;;8.94;100.00
10806;BME280;5455;53.224;6.000;2023-02-15T11:50:30;102511.94;;;8.95;100.00
10806;BME280;5455;53.224;6.000;2023-02-15T11:53:04;102518.53;;;9.07;100.00
10806;BME280;5455;53.224;6.000;2023-02-15T11:55:31;102510.38;;;9.16;100.00
10806;BME280;5455;53.224;6.000;2023-02-15T12:01:16;102495.78;;;9.15;100.00
10806;BME280;5455;53.224;6.000;2023-02-15T12:03:49;102489.97;;;9.17;100.00
10806;BME280;5455;53.224;6.000;2023-02-15T12:06:32;102484.88;;;9.24;100.00
10806;BME280;5455;53.224;6.000;2023-02-15T12:09:05;102467.81;;;9.35;100.00
10806;BME280;5455;53.224;6.000;2023-02-15T12:11:38;102471.16;;;9.46;100.00
10806;BME280;5455;53.224;6.000;2023-02-15T12:14:12;102471.50;;;9.53;100.00
10806;BME280;5455;53.224;6.000;2023-02-15T12:16:54;102472.03;;;9.55;100.00
10806;BME280;5455;53.224;6.000;2023-02-15T12:19:32;102464.38;;;9.52;100.00
10806;BME280;5455;53.224;6.000;2023-02-15T12:22:04;102462.13;;;9.54;100.00
10806;BME280;5455;53.224;6.000;2023-02-15T12:24:37;102458.00;;;9.65;100.00
10806;BME280;5455;53.224;6.000;2023-02-15T12:27:13;102456.09;;;9.74;100.00
10806;BME280;5455;53.224;6.000;2023-02-15T12:29:45;102454.03;;;9.80;100.00
10806;BME280;5455;53.224;6.000;2023-02-15T12:32:21;102457.31;;;9.82;100.00
10806;BME280;5455;53.224;6.000;2023-02-15T12:34:50;102460.13;;;9.90;100.00
10806;BME280;5455;53.224;6.000;2023-02-15T12:37:25;102448.75;;;9.92;100.00
10806;BME280;5455;53.224;6.000;2023-02-15T12:39:58;102439.69;;;9.91;100.00
10806;BME280;5455;53.224;6.000;2023-02-15T12:42:28;102435.03;;;10.01;100.00
10806;BME280;5455;53.224;6.000;2023-02-15T12:45:22;102437.75;;;10.14;100.00
10806;BME280;5455;53.224;6.000;2023-02-15T12:50:46;102437.31;;;10.29;100.00
10806;BME280;5455;53.224;6.000;2023-02-15T12:53:32;102428.59;;;10.36;100.00
10806;BME280;5455;53.224;6.000;2023-02-15T12:56:02;102418.88;;;10.38;100.00
10806;BME280;5455;53.224;6.000;2023-02-15T12:58:35;102436.88;;;10.36;100.00
10806;BME280;5455;53.224;6.000;2023-02-15T13:04:01;102434.09;;;10.05;100.00
10806;BME280;5455;53.224;6.000;2023-02-15T13:06:32;102429.22;;;10.02;100.00
10806;BME280;5455;53.224;6.000;2023-02-15T13:09:18;102431.47;;;10.00;100.00
10806;BME280;5455;53.224;6.000;2023-02-15T13:11:46;102439.56;;;9.96;100.00
10806;BME280;5455;53.224;6.000;2023-02-15T13:14:19;102436.44;;;9.89;100.00
10806;BME280;5455;53.224;6.000;2023-02-15T13:16:49;102441.47;;;9.87;100.00
10806;BME280;5455;53.224;6.000;2023-02-15T13:19:21;102434.78;;;9.88;100.00
10806;BME280;5455;53.224;6.000;2023-02-15T13:21:51;102430.78;;;9.94;100.00
10806;BME280;5455;53.224;6.000;2023-02-15T13:24:25;102429.69;;;10.04;100.00
10806;BME280;5455;53.224;6.000;2023-02-15T13:26:56;102428.75;;;10.09;100.00
10806;BME280;5455;53.224;6.000;2023-02-15T13:29:43;102427.84;;;10.13;100.00
10806;BME280;5455;53.224;6.000;2023-02-15T13:35:01;102416.69;;;10.18;100.00
10806;BME280;5455;53.224;6.000;2023-02-15T13:40:20;102430.78;;;10.17;100.00
10806;BME280;5455;53.224;6.000;2023-02-15T14:11:04;102402.84;;;9.79;100.00
10806;BME280;5455;53.224;6.000;2023-02-15T14:22:01;102385.84;;;9.85;100.00
10806;BME280;5455;53.224;6.000;2023-02-15T14:27:03;102378.75;;;9.93;100.00
10806;BME280;5455;53.224;6.000;2023-02-15T14:29:59;102372.63;;;9.96;100.00
10806;BME280;5455;53.224;6.000;2023-02-15T14:32:38;102376.50;;;9.95;100.00
10806;BME280;5455;53.224;6.000;2023-02-15T14:35:20;102373.56;;;9.91;100.00
10806;BME280;5455;53.224;6.000;2023-02-15T14:38:21;102374.81;;;9.85;100.00
10806;BME280;5455;53.224;6.000;2023-02-15T14:41:06;102376.78;;;9.85;100.00
10806;BME280;5455;53.224;6.000;2023-02-15T14:56:45;102359.06;;;9.77;100.00
10806;BME280;5455;53.224;6.000;2023-02-15T14:59:18;102358.88;;;9.74;100.00
10806;BME280;5455;53.224;6.000;2023-02-15T15:02:07;102350.91;;;9.64;100.00
10806;BME280;5455;53.224;6.000;2023-02-15T15:04:38;102349.91;;;9.60;100.00
10806;BME280;5455;53.224;6.000;2023-02-15T15:07:22;102350.41;;;9.62;100.00
10806;BME280;5455;53.224;6.000;2023-02-15T15:10:03;102351.84;;;9.59;100.00
10806;BME280;5455;53.224;6.000;2023-02-15T15:15:01;102346.47;;;9.54;100.00
10806;BME280;5455;53.224;6.000;2023-02-15T15:25:49;102352.75;;;9.46;100.00
10806;BME280;5455;53.224;6.000;2023-02-15T15:31:06;102350.53;;;9.34;100.00
10806;BME280;5455;53.224;6.000;2023-02-15T15:50:53;102303.78;;;8.90;100.00
10806;BME280;5455;53.224;6.000;2023-02-15T15:53:25;102318.78;;;8.84;100.00
10806;BME280;5455;53.224;6.000;2023-02-15T15:55:59;102321.94;;;8.77;100.00
10806;BME280;5455;53.224;6.000;2023-02-15T15:58:28;102324.34;;;8.70;100.00
10806;BME280;5455;53.224;6.000;2023-02-15T16:01:08;102318.63;;;8.67;100.00
10806;BME280;5455;53.224;6.000;2023-02-15T16:03:38;102314.19;;;8.57;100.00
10806;BME280;5455;53.224;6.000;2023-02-15T16:06:05;102308.00;;;8.52;100.00
10806;BME280;5455;53.224;6.000;2023-02-15T16:08:37;102309.53;;;8.44;100.00
10806;BME280;5455;53.224;6.000;2023-02-15T16:11:15;102307.22;;;8.38;100.00
10806;BME280;5455;53.224;6.000;2023-02-15T16:13:44;102300.69;;;8.34;100.00
10806;BME280;5455;53.224;6.000;2023-02-15T16:16:24;102299.47;;;8.26;100.00